createdAt,value
2022-09-20T00:01:29.123Z,48.40
2022-09-20T00:03:58.533Z,48.40
2022-09-20T00:06:28.430Z,48.40
2022-09-20T00:11:26.382Z,48.50
2022-09-20T00:13:56.053Z,48.50
2022-09-20T00:16:34.854Z,48.60
2022-09-20T00:19:05.898Z,48.60
2022-09-20T00:21:36.236Z,48.60
2022-09-20T00:24:04.198Z,48.70
2022-09-20T00:26:30.876Z,48.80
2022-09-20T00:28:58.654Z,48.80
2022-09-20T00:31:25.821Z,49.70
2022-09-20T00:34:14.899Z,48.90
2022-09-20T00:36:41.682Z,48.90
2022-09-20T00:39:12.379Z,48.90
2022-09-20T00:44:44.011Z,48.90
2022-09-20T00:47:25.938Z,49.00
2022-09-20T00:49:59.681Z,49.00
2022-09-20T00:52:27.743Z,49.10
2022-09-20T00:54:54.842Z,49.10
2022-09-20T00:57:21.811Z,49.10
2022-09-20T00:59:50.266Z,49.10
2022-09-20T01:02:27.682Z,49.00
2022-09-20T01:04:57.554Z,49.10
2022-09-20T01:07:25.874Z,49.00
2022-09-20T01:09:52.696Z,49.10
2022-09-20T01:12:27.170Z,49.10
2022-09-20T01:14:55.225Z,49.10
2022-09-20T01:22:36.877Z,49.20
2022-09-20T01:25:54.864Z,49.30
2022-09-20T01:28:22.365Z,49.20
2022-09-20T01:31:02.663Z,49.20
2022-09-20T01:33:42.107Z,49.30
2022-09-20T01:36:13.022Z,49.80
2022-09-20T01:39:40.997Z,49.40
2022-09-20T01:42:13.450Z,49.40
2022-09-20T01:44:53.254Z,49.30
2022-09-20T01:47:46.105Z,49.40
2022-09-20T01:51:00.352Z,49.40
2022-09-20T01:53:51.673Z,49.50
2022-09-20T01:56:33.414Z,49.50
2022-09-20T01:59:25.816Z,49.60
2022-09-20T02:02:09.760Z,49.70
2022-09-20T02:04:55.409Z,49.70
2022-09-20T02:07:31.013Z,49.70
2022-09-20T02:10:35.005Z,49.80
2022-09-20T02:13:26.210Z,49.90
2022-09-20T02:15:59.090Z,50.00
2022-09-20T02:18:47.584Z,50.00
2022-09-20T02:21:17.100Z,50.00
2022-09-20T02:24:00.519Z,50.00
2022-09-20T02:29:37.293Z,50.10
2022-09-20T02:32:28.610Z,50.10
2022-09-20T02:35:19.742Z,50.20
2022-09-20T02:38:06.811Z,50.40
2022-09-20T02:40:52.078Z,50.30
2022-09-20T02:43:43.887Z,50.30
2022-09-20T02:46:25.958Z,50.40
2022-09-20T02:49:11.662Z,50.40
2022-09-20T02:51:49.370Z,50.50
2022-09-20T02:54:42.918Z,50.60
2022-09-20T02:57:47.613Z,50.60
2022-09-20T03:00:27.446Z,50.60
2022-09-20T03:03:11.526Z,50.70
2022-09-20T03:05:38.239Z,50.60
2022-09-20T03:08:23.647Z,50.70
2022-09-20T03:11:08.496Z,51.30
2022-09-20T03:14:10.509Z,50.70
2022-09-20T03:16:56.193Z,50.80
2022-09-20T03:22:27.204Z,50.90
2022-09-20T03:25:18.535Z,50.80
2022-09-20T03:28:23.422Z,50.90
2022-09-20T03:31:04.331Z,50.80
2022-09-20T03:33:58.744Z,51.00
2022-09-20T03:39:23.023Z,51.00
2022-09-20T03:42:02.994Z,51.10
2022-09-20T03:44:35.934Z,50.90
2022-09-20T03:47:31.878Z,51.10
2022-09-20T03:50:24.897Z,51.10
2022-09-20T03:53:06.670Z,51.20
2022-09-20T03:55:45.404Z,51.20
2022-09-20T03:58:34.985Z,51.70
2022-09-20T04:01:20.656Z,51.30
2022-09-20T04:04:19.644Z,51.20
2022-09-20T04:07:09.731Z,51.30
2022-09-20T04:09:57.136Z,51.20
2022-09-20T04:12:49.186Z,51.30
2022-09-20T04:15:45.806Z,51.40
2022-09-20T04:18:56.918Z,51.40
2022-09-20T04:21:29.561Z,51.40
2022-09-20T04:26:44.014Z,51.30
2022-09-20T04:29:33.998Z,51.30
2022-09-20T04:32:25.392Z,51.30
2022-09-20T04:35:23.987Z,51.40
2022-09-20T04:37:52.730Z,51.40
2022-09-20T04:40:38.143Z,51.40
2022-09-20T04:43:32.902Z,51.50
2022-09-20T04:46:16.498Z,51.40
2022-09-20T04:49:03.232Z,51.40
2022-09-20T04:52:00.831Z,51.30
2022-09-20T04:54:52.270Z,51.20
2022-09-20T05:00:16.104Z,51.00
2022-09-20T05:10:41.049Z,50.70
2022-09-20T05:13:39.506Z,50.70
2022-09-20T05:16:44.560Z,50.60
2022-09-20T05:22:06.511Z,50.70
2022-09-20T05:24:54.127Z,50.80
2022-09-20T05:27:43.302Z,50.70
2022-09-20T05:30:22.939Z,51.50
2022-09-20T05:35:38.501Z,53.30
2022-09-20T05:38:27.402Z,54.20
2022-09-20T05:43:42.920Z,54.60
2022-09-20T05:46:44.539Z,54.50
2022-09-20T05:49:29.702Z,54.50
2022-09-20T05:52:23.938Z,54.60
2022-09-20T05:55:15.707Z,54.90
2022-09-20T05:58:11.194Z,54.80
2022-09-20T06:00:47.898Z,54.90
2022-09-20T06:03:42.427Z,54.80
2022-09-20T06:06:51.009Z,54.70
2022-09-20T06:09:58.526Z,54.70
2022-09-20T06:12:54.190Z,54.90
2022-09-20T06:15:36.182Z,55.50
2022-09-20T06:18:28.813Z,55.10
2022-09-20T06:21:45.299Z,55.00
2022-09-20T06:24:49.193Z,54.90
2022-09-20T06:27:28.522Z,54.80
2022-09-20T06:30:02.537Z,54.80
2022-09-20T06:32:29.326Z,54.70
2022-09-20T06:34:56.110Z,54.50
2022-09-20T06:37:57.961Z,54.30
2022-09-20T06:40:58.300Z,54.10
2022-09-20T06:43:25.023Z,55.20
2022-09-20T06:45:51.817Z,53.90
2022-09-20T06:48:19.151Z,53.70
2022-09-20T06:50:45.825Z,53.60
2022-09-20T06:53:18.521Z,53.50
2022-09-20T07:00:40.971Z,53.10
2022-09-20T07:05:36.379Z,53.00
2022-09-20T07:08:03.319Z,52.90
2022-09-20T07:10:30.554Z,52.80
2022-09-20T07:12:59.323Z,52.60
2022-09-20T07:15:31.921Z,52.70
2022-09-20T07:22:54.461Z,52.30
2022-09-20T07:25:21.927Z,52.20
2022-09-20T07:27:50.775Z,52.10
2022-09-20T07:30:19.978Z,52.10
2022-09-20T07:35:15.090Z,51.90
2022-09-20T07:37:41.856Z,51.70
2022-09-20T07:40:10.806Z,51.70
2022-09-20T07:42:37.641Z,51.60
2022-09-20T07:52:29.758Z,51.40
2022-09-20T07:57:23.941Z,51.30
2022-09-20T07:59:50.760Z,51.10
2022-09-20T08:02:18.584Z,51.10
2022-09-20T08:48:02.311Z,50.00
2022-09-20T09:03:12.279Z,49.80
2022-09-20T09:11:04.672Z,49.60
2022-09-20T09:16:09.936Z,49.50
2022-09-20T09:18:40.666Z,49.50
2022-09-20T09:21:10.413Z,49.40
2022-09-20T09:23:41.622Z,49.40
2022-09-20T09:41:44.363Z,48.90
2022-09-20T09:46:47.849Z,48.90
2022-09-20T09:49:21.387Z,48.80
2022-09-20T09:52:03.308Z,48.70
2022-09-20T09:54:37.578Z,48.70
2022-09-20T09:57:24.151Z,48.70
2022-09-20T10:00:17.520Z,48.60
2022-09-20T10:05:55.429Z,48.50
2022-09-20T10:08:49.160Z,48.40
2022-09-20T10:11:24.447Z,48.40
2022-09-20T10:14:08.191Z,48.40
2022-09-20T10:20:05.957Z,48.40
2022-09-20T10:23:00.326Z,48.40
2022-09-20T10:26:08.026Z,48.50
2022-09-20T10:29:04.202Z,48.30
2022-09-20T10:31:58.747Z,48.30
2022-09-20T10:34:48.057Z,48.50
2022-09-20T10:37:39.211Z,48.30
2022-09-20T10:43:08.644Z,48.40
2022-09-20T10:46:20.964Z,48.30
2022-09-20T10:56:31.412Z,48.30
2022-09-20T10:59:22.477Z,48.20
2022-09-20T11:04:47.865Z,48.30
2022-09-20T11:21:19.205Z,48.60
2022-09-20T11:24:03.489Z,48.80
2022-09-20T11:29:32.219Z,48.70
2022-09-20T11:39:53.800Z,48.70
2022-09-20T11:45:04.917Z,48.70
2022-09-20T11:48:09.753Z,48.80
2022-09-20T11:51:01.115Z,48.80
2022-09-20T11:53:47.994Z,48.80
2022-09-20T11:56:26.702Z,48.80
2022-09-20T11:58:57.831Z,48.80
2022-09-20T12:01:32.698Z,48.80
2022-09-20T12:04:31.769Z,48.60
2022-09-20T12:07:20.101Z,48.60
2022-09-20T12:12:44.156Z,48.60
2022-09-20T12:20:53.402Z,48.60
2022-09-20T12:26:21.560Z,48.60
2022-09-20T12:28:50.691Z,48.40
2022-09-20T12:31:29.116Z,48.60
2022-09-20T12:34:01.100Z,48.50
2022-09-20T12:36:30.246Z,48.50
2022-09-20T12:39:13.079Z,48.50
2022-09-20T12:42:01.309Z,48.50
2022-09-20T12:44:54.935Z,48.50
2022-09-20T12:47:33.387Z,48.50
2022-09-20T12:50:23.416Z,48.50
2022-09-20T12:52:57.638Z,48.40
2022-09-20T12:55:27.766Z,48.30
2022-09-20T13:00:45.676Z,48.30
2022-09-20T13:08:27.181Z,48.20
2022-09-20T13:11:01.671Z,48.20
2022-09-20T13:13:37.542Z,48.20
2022-09-20T13:18:35.306Z,48.20
2022-09-20T13:21:06.968Z,48.10
2022-09-20T13:23:46.611Z,48.10
2022-09-20T13:26:15.831Z,48.10
2022-09-20T13:28:54.202Z,48.00
2022-09-20T13:31:22.173Z,48.00
2022-09-20T13:33:49.642Z,47.90
2022-09-20T13:36:26.268Z,47.90
2022-09-20T13:38:55.546Z,47.90
2022-09-20T14:04:13.497Z,48.00
2022-09-20T14:06:42.288Z,48.10
2022-09-20T14:09:20.978Z,48.00
2022-09-20T14:29:34.568Z,48.00
2022-09-20T14:37:29.227Z,48.10
2022-09-20T14:55:13.283Z,47.80
2022-09-20T14:57:42.251Z,47.80
2022-09-20T15:02:42.993Z,47.70
2022-09-20T15:05:26.986Z,47.70
2022-09-20T15:07:55.827Z,48.00
2022-09-20T15:17:47.037Z,47.80
2022-09-20T15:20:20.604Z,47.80
2022-09-20T15:27:46.796Z,47.80
2022-09-20T15:30:19.790Z,47.80
2022-09-20T15:32:47.123Z,47.80
2022-09-20T15:45:09.839Z,47.40
2022-09-20T15:52:39.813Z,47.20
2022-09-20T16:12:25.688Z,47.40
2022-09-20T16:30:03.101Z,47.50
2022-09-20T17:24:21.992Z,47.70
2022-09-20T17:26:50.589Z,47.80
2022-09-20T17:29:18.636Z,47.70
2022-09-20T17:36:50.360Z,47.80
2022-09-20T17:41:47.068Z,47.70
2022-09-20T17:46:43.413Z,47.70
2022-09-20T17:49:12.375Z,47.80
2022-09-20T17:51:41.464Z,47.70
2022-09-20T18:09:02.624Z,49.10
2022-09-20T18:11:33.502Z,49.20
2022-09-20T18:26:29.908Z,49.30
2022-09-20T18:29:04.679Z,49.30
2022-09-20T18:36:39.721Z,49.20
2022-09-20T18:58:58.452Z,49.10
2022-09-20T19:09:15.334Z,49.00
2022-09-20T19:11:51.751Z,48.90
2022-09-20T19:14:52.813Z,48.90
2022-09-20T19:17:31.766Z,49.00
2022-09-20T19:20:14.668Z,48.90
2022-09-20T19:23:04.338Z,49.00
2022-09-20T19:56:55.007Z,48.90
2022-09-20T20:09:56.151Z,48.90
2022-09-20T20:12:53.641Z,48.90
2022-09-20T20:23:45.489Z,48.90
2022-09-20T20:41:19.403Z,49.00
2022-09-20T20:51:20.087Z,49.00
2022-09-20T20:53:50.552Z,49.10
2022-09-20T20:56:20.354Z,49.00
2022-09-20T21:08:48.288Z,49.00
2022-09-20T21:16:21.454Z,49.00
2022-09-20T21:18:49.424Z,49.10
2022-09-20T21:21:30.116Z,49.00
2022-09-20T21:23:58.986Z,49.10
2022-09-20T21:26:27.669Z,49.10
2022-09-20T21:28:59.452Z,49.10
2022-09-20T21:31:31.728Z,49.10
2022-09-20T21:33:59.483Z,49.20
2022-09-20T21:36:30.561Z,49.20
2022-09-20T21:38:58.421Z,49.10
2022-09-20T21:41:27.649Z,49.30
2022-09-20T21:43:56.322Z,49.20
2022-09-20T21:46:28.784Z,49.20
2022-09-20T21:48:57.458Z,49.30
2022-09-20T21:56:28.239Z,49.40
2022-09-20T21:58:55.347Z,49.40
2022-09-20T22:01:27.618Z,49.40
2022-09-20T22:03:58.843Z,49.50
2022-09-20T22:06:29.952Z,49.40
2022-09-20T22:09:05.475Z,49.50
2022-09-20T22:11:39.202Z,49.60
2022-09-20T22:14:08.601Z,49.60
2022-09-20T22:16:40.694Z,49.70
2022-09-20T22:19:09.930Z,49.70
2022-09-20T22:21:40.291Z,49.80
2022-09-20T22:24:10.637Z,49.80
2022-09-20T22:26:49.006Z,49.80
2022-09-20T22:31:46.858Z,49.80
2022-09-20T22:34:18.805Z,49.80
2022-09-20T22:36:46.061Z,49.80
2022-09-20T22:39:14.707Z,49.90
2022-09-20T22:41:42.885Z,49.90
2022-09-20T22:44:10.719Z,50.00
2022-09-20T22:49:09.435Z,50.00
2022-09-20T22:54:06.792Z,49.90
2022-09-20T22:59:05.809Z,49.90
2022-09-20T23:01:38.632Z,50.00
2022-09-20T23:04:08.590Z,50.00
2022-09-20T23:06:41.620Z,49.90
2022-09-20T23:09:13.705Z,50.00
2022-09-20T23:21:38.171Z,49.90
2022-09-20T23:24:07.894Z,49.90
2022-09-20T23:26:37.330Z,49.80
2022-09-20T23:29:08.231Z,49.90
2022-09-20T23:34:06.711Z,49.70
2022-09-20T23:36:36.714Z,49.80
2022-09-20T23:41:34.294Z,49.70
2022-09-20T23:53:53.635Z,49.80
2022-09-20T23:56:23.123Z,49.60
